createdAt,value
2019-03-29T00:02:20.983Z,0.80
2019-03-29T00:04:50.791Z,0.70
2019-03-29T00:07:20.523Z,0.60
2019-03-29T00:09:50.493Z,0.97
2019-03-29T00:12:20.362Z,0.80
2019-03-29T00:14:50.202Z,0.90
2019-03-29T00:17:20.093Z,0.83
2019-03-29T00:19:49.863Z,0.50
2019-03-29T00:22:19.584Z,0.83
2019-03-29T00:24:49.492Z,0.80
2019-03-29T00:27:19.370Z,0.80
2019-03-29T00:29:49.092Z,1.03
2019-03-29T00:32:19.113Z,1.77
2019-03-29T00:34:48.930Z,0.83
2019-03-29T00:37:18.744Z,0.97
2019-03-29T00:39:48.541Z,0.80
2019-03-29T00:42:18.320Z,0.60
2019-03-29T00:44:48.366Z,0.80
2019-03-29T00:47:18.305Z,0.90
2019-03-29T00:49:48.077Z,0.87
2019-03-29T00:52:18.070Z,0.80
2019-03-29T00:54:48.127Z,1.17
2019-03-29T00:57:17.998Z,0.90
2019-03-29T00:59:47.723Z,1.17
2019-03-29T01:02:18.904Z,0.70
2019-03-29T01:04:48.862Z,1.07
2019-03-29T01:07:19.240Z,1.30
2019-03-29T01:09:48.970Z,1.20
2019-03-29T01:12:18.745Z,1.13
2019-03-29T01:14:48.572Z,1.30
2019-03-29T01:17:18.331Z,1.20
2019-03-29T01:19:48.074Z,0.90
2019-03-29T01:22:18.117Z,1.27
2019-03-29T01:24:47.845Z,1.30
2019-03-29T01:27:18.473Z,1.37
2019-03-29T01:29:49.284Z,1.70
2019-03-29T01:32:19.026Z,1.30
2019-03-29T01:34:48.831Z,1.07
2019-03-29T01:37:19.765Z,1.30
2019-03-29T01:39:49.695Z,1.30
2019-03-29T01:42:19.658Z,1.70
2019-03-29T01:44:49.414Z,0.80
2019-03-29T01:47:19.155Z,1.60
2019-03-29T01:49:49.131Z,1.13
2019-03-29T01:52:19.312Z,1.47
2019-03-29T01:54:49.784Z,1.60
2019-03-29T01:57:19.778Z,2.10
2019-03-29T01:59:49.514Z,1.07
2019-03-29T02:02:19.244Z,0.87
2019-03-29T02:04:49.419Z,1.23
2019-03-29T02:07:19.154Z,1.33
2019-03-29T02:09:48.882Z,1.27
2019-03-29T02:12:18.754Z,1.40
2019-03-29T02:14:48.631Z,1.10
2019-03-29T02:17:18.635Z,1.87
2019-03-29T02:19:48.604Z,1.43
2019-03-29T02:22:18.340Z,1.13
2019-03-29T02:24:48.427Z,1.20
2019-03-29T02:27:19.265Z,1.40
2019-03-29T02:29:49.000Z,1.80
2019-03-29T02:32:18.734Z,1.70
2019-03-29T02:34:48.694Z,1.30
2019-03-29T02:37:18.426Z,1.47
2019-03-29T02:39:48.424Z,1.87
2019-03-29T02:42:18.200Z,1.60
2019-03-29T02:44:47.923Z,1.67
2019-03-29T02:47:17.964Z,1.70
2019-03-29T02:49:47.731Z,1.40
2019-03-29T02:52:17.558Z,1.30
2019-03-29T02:54:49.611Z,1.80
2019-03-29T02:57:19.380Z,1.50
2019-03-29T02:59:49.517Z,2.07
2019-03-29T03:02:20.553Z,1.50
2019-03-29T03:04:50.537Z,2.20
2019-03-29T03:07:20.274Z,1.90
2019-03-29T03:09:50.040Z,1.90
2019-03-29T03:12:19.965Z,1.57
2019-03-29T03:14:49.707Z,2.00
2019-03-29T03:17:19.450Z,1.87
2019-03-29T03:19:49.510Z,1.43
2019-03-29T03:22:19.233Z,1.37
2019-03-29T03:24:49.014Z,1.57
2019-03-29T03:27:18.861Z,1.90
2019-03-29T03:29:48.829Z,1.73
2019-03-29T03:32:18.633Z,1.87
2019-03-29T03:34:48.723Z,2.17
2019-03-29T03:37:18.512Z,2.00
2019-03-29T03:39:48.259Z,1.73
2019-03-29T03:42:18.130Z,2.00
2019-03-29T03:44:47.855Z,1.80
2019-03-29T03:47:17.579Z,2.20
2019-03-29T03:49:47.814Z,1.87
2019-03-29T03:52:17.607Z,2.30
2019-03-29T03:54:47.403Z,2.00
2019-03-29T03:57:17.581Z,2.03
2019-03-29T03:59:48.326Z,1.60
2019-03-29T04:02:18.279Z,1.70
2019-03-29T04:04:48.051Z,2.27
2019-03-29T04:07:17.783Z,1.77
2019-03-29T04:09:50.045Z,2.07
2019-03-29T04:12:19.300Z,2.00
2019-03-29T04:14:49.269Z,2.57
2019-03-29T04:17:18.989Z,2.20
2019-03-29T04:19:48.788Z,2.50
2019-03-29T04:22:18.715Z,1.73
2019-03-29T04:24:48.456Z,2.17
2019-03-29T04:27:18.224Z,1.80
2019-03-29T04:29:48.037Z,1.90
2019-03-29T04:32:17.760Z,2.53
2019-03-29T04:34:47.619Z,2.13
2019-03-29T04:37:17.581Z,2.97
2019-03-29T04:39:47.311Z,2.27
2019-03-29T04:42:17.097Z,2.27
2019-03-29T04:44:46.907Z,2.13
2019-03-29T04:47:16.627Z,1.83
2019-03-29T04:49:46.419Z,2.20
2019-03-29T04:52:16.342Z,1.63
2019-03-29T04:54:46.097Z,2.57
2019-03-29T04:57:16.257Z,2.47
2019-03-29T04:59:46.297Z,3.67
2019-03-29T05:02:16.500Z,1.90
2019-03-29T05:04:46.368Z,2.70
2019-03-29T05:07:16.198Z,1.90
2019-03-29T05:09:45.945Z,2.20
2019-03-29T05:12:15.745Z,3.43
2019-03-29T05:14:45.568Z,2.27
2019-03-29T05:17:15.304Z,2.23
2019-03-29T05:19:45.137Z,3.20
2019-03-29T05:22:14.956Z,2.00
2019-03-29T05:24:44.689Z,2.80
2019-03-29T05:27:14.456Z,2.40
2019-03-29T05:29:44.273Z,2.37
2019-03-29T05:32:14.101Z,2.13
2019-03-29T05:34:43.861Z,3.27
2019-03-29T05:37:13.811Z,1.80
2019-03-29T05:39:43.539Z,2.07
2019-03-29T05:42:13.397Z,2.70
2019-03-29T05:44:43.600Z,2.67
2019-03-29T05:47:13.380Z,2.50
2019-03-29T05:49:43.342Z,3.00
2019-03-29T05:52:13.317Z,2.60
2019-03-29T05:54:43.120Z,2.00
2019-03-29T05:57:12.975Z,2.70
2019-03-29T05:59:43.035Z,3.67
2019-03-29T06:02:12.863Z,2.07
2019-03-29T06:04:42.995Z,2.70
2019-03-29T06:07:12.951Z,2.23
2019-03-29T06:09:42.691Z,1.80
2019-03-29T06:12:12.460Z,2.70
2019-03-29T06:14:43.151Z,2.50
2019-03-29T06:17:12.896Z,1.33
2019-03-29T06:19:42.726Z,2.70
2019-03-29T06:22:15.130Z,2.17
2019-03-29T06:24:44.967Z,2.53
2019-03-29T06:27:14.828Z,2.90
2019-03-29T06:29:44.568Z,2.77
2019-03-29T06:32:14.296Z,2.03
2019-03-29T06:34:44.358Z,2.37
2019-03-29T06:37:17.487Z,2.70
2019-03-29T06:39:49.016Z,2.90
2019-03-29T06:42:19.716Z,1.93
2019-03-29T06:44:52.108Z,2.80
2019-03-29T06:47:21.928Z,2.27
2019-03-29T06:49:51.735Z,2.43
2019-03-29T06:52:21.569Z,2.47
2019-03-29T06:54:51.505Z,3.60
2019-03-29T06:57:21.412Z,2.60
2019-03-29T06:59:51.389Z,2.83
2019-03-29T07:02:21.232Z,2.47
2019-03-29T07:04:51.006Z,2.80
2019-03-29T07:07:20.821Z,1.80
2019-03-29T07:09:50.645Z,2.20
2019-03-29T07:12:20.579Z,1.83
2019-03-29T07:14:50.391Z,1.97
2019-03-29T07:17:20.166Z,2.60
2019-03-29T07:19:50.023Z,3.00
2019-03-29T07:22:20.204Z,2.97
2019-03-29T07:24:50.018Z,2.80
2019-03-29T07:27:20.047Z,2.23
2019-03-29T07:29:49.815Z,2.83
2019-03-29T07:32:19.595Z,3.00
2019-03-29T07:34:49.455Z,2.40
2019-03-29T07:37:19.162Z,2.33
2019-03-29T07:39:48.949Z,2.83
2019-03-29T07:42:18.792Z,2.03
2019-03-29T07:44:48.614Z,2.53
2019-03-29T07:47:18.399Z,2.90
2019-03-29T07:49:48.212Z,2.30
2019-03-29T07:52:19.475Z,2.23
2019-03-29T07:54:49.822Z,1.53
2019-03-29T07:57:19.547Z,2.97
2019-03-29T07:59:49.869Z,2.97
2019-03-29T08:02:20.993Z,2.87
2019-03-29T08:04:51.304Z,2.23
2019-03-29T08:07:27.011Z,1.90
2019-03-29T08:09:54.093Z,2.03
2019-03-29T08:12:24.044Z,2.30
2019-03-29T08:14:53.961Z,2.60
2019-03-29T08:17:23.946Z,2.50
2019-03-29T08:20:24.496Z,2.03
2019-03-29T08:22:26.409Z,2.40
2019-03-29T08:24:59.102Z,1.67
2019-03-29T08:27:28.096Z,2.03
2019-03-29T08:29:57.846Z,1.50
2019-03-29T08:32:27.705Z,2.00
2019-03-29T08:34:57.690Z,2.80
2019-03-29T08:37:27.533Z,2.40
2019-03-29T08:39:57.302Z,2.43
2019-03-29T08:42:27.251Z,2.20
2019-03-29T08:44:57.023Z,1.90
2019-03-29T08:47:26.808Z,2.23
2019-03-29T08:49:56.829Z,2.93
2019-03-29T08:52:26.715Z,2.87
2019-03-29T08:54:56.450Z,2.37
2019-03-29T08:57:26.366Z,2.63
2019-03-29T08:59:56.310Z,2.27
2019-03-29T09:02:26.469Z,2.87
2019-03-29T09:04:56.414Z,2.33
2019-03-29T09:07:28.124Z,2.10
2019-03-29T09:09:58.508Z,2.13
2019-03-29T09:12:28.233Z,3.47
2019-03-29T09:14:58.386Z,1.83
2019-03-29T09:17:28.343Z,1.97
2019-03-29T09:19:58.078Z,2.20
2019-03-29T09:22:27.914Z,1.53
2019-03-29T09:24:57.887Z,2.07
2019-03-29T09:27:27.663Z,3.03
2019-03-29T09:29:57.673Z,2.70
2019-03-29T09:32:27.535Z,2.20
2019-03-29T09:34:57.267Z,2.47
2019-03-29T09:37:27.045Z,2.20
2019-03-29T09:39:57.069Z,2.57
2019-03-29T09:42:29.669Z,2.63
2019-03-29T09:44:58.569Z,2.93
2019-03-29T09:47:29.947Z,2.93
2019-03-29T09:50:00.114Z,3.10
2019-03-29T09:52:29.883Z,2.90
2019-03-29T09:54:59.661Z,3.23
2019-03-29T09:57:37.118Z,3.20
2019-03-29T10:00:01.350Z,2.00
2019-03-29T10:02:31.311Z,2.57
2019-03-29T10:05:01.061Z,4.63
2019-03-29T10:07:30.850Z,3.50
2019-03-29T10:10:00.837Z,4.03
2019-03-29T10:12:42.570Z,3.07
2019-03-29T10:15:03.538Z,2.93
2019-03-29T10:17:33.294Z,2.90
2019-03-29T10:20:03.038Z,3.20
2019-03-29T10:22:32.938Z,3.87
2019-03-29T10:25:02.885Z,3.77
2019-03-29T10:27:34.270Z,3.43
2019-03-29T10:30:04.829Z,3.60
2019-03-29T10:32:34.576Z,3.23
2019-03-29T10:35:04.612Z,4.20
2019-03-29T10:37:34.415Z,3.67
2019-03-29T10:40:04.160Z,3.90
2019-03-29T10:42:34.015Z,2.53
2019-03-29T10:45:03.906Z,3.27
2019-03-29T10:47:43.311Z,3.77
2019-03-29T10:50:06.474Z,4.23
2019-03-29T10:52:36.381Z,3.93
2019-03-29T10:55:06.364Z,3.93
2019-03-29T10:57:36.315Z,4.33
2019-03-29T11:00:10.753Z,3.67
2019-03-29T11:02:40.947Z,3.30
2019-03-29T11:05:10.771Z,3.77
2019-03-29T11:07:40.990Z,4.33
2019-03-29T11:10:14.546Z,4.63
2019-03-29T11:12:44.670Z,4.83
2019-03-29T11:15:14.485Z,3.70
2019-03-29T11:17:44.429Z,4.27
2019-03-29T11:20:14.482Z,3.97
2019-03-29T11:22:44.230Z,3.53
2019-03-29T11:25:14.060Z,3.33
2019-03-29T11:27:43.833Z,4.07
2019-03-29T11:30:13.786Z,3.50
2019-03-29T11:32:43.711Z,3.30
2019-03-29T11:35:15.854Z,3.60
2019-03-29T11:37:45.694Z,3.43
2019-03-29T11:40:15.427Z,3.17
2019-03-29T11:42:45.632Z,3.57
2019-03-29T11:45:16.876Z,3.20
2019-03-29T11:47:46.624Z,3.77
2019-03-29T11:50:16.750Z,3.70
2019-03-29T11:52:46.704Z,3.90
2019-03-29T11:55:16.428Z,3.23
2019-03-29T11:57:46.240Z,2.93
2019-03-29T12:00:17.642Z,3.83
2019-03-29T12:02:47.504Z,3.70
2019-03-29T12:05:19.946Z,2.93
2019-03-29T12:07:49.707Z,3.80
2019-03-29T12:10:19.455Z,3.90
2019-03-29T12:12:49.349Z,3.47
2019-03-29T12:15:19.311Z,3.77
2019-03-29T12:17:49.068Z,3.27
2019-03-29T12:20:19.226Z,3.23
2019-03-29T12:22:48.985Z,3.13
2019-03-29T12:25:18.719Z,3.70
2019-03-29T12:27:48.762Z,3.60
2019-03-29T12:30:31.502Z,3.90
2019-03-29T12:32:50.853Z,3.17
2019-03-29T12:35:20.609Z,2.70
2019-03-29T12:37:50.373Z,2.93
2019-03-29T12:40:20.196Z,3.00
2019-03-29T12:42:49.987Z,3.07
2019-03-29T12:45:19.832Z,3.33
2019-03-29T12:47:49.724Z,2.40
2019-03-29T12:50:19.498Z,2.47
2019-03-29T12:52:49.253Z,2.77
2019-03-29T12:55:19.087Z,2.90
2019-03-29T12:57:48.855Z,3.07
2019-03-29T13:00:19.137Z,2.63
2019-03-29T13:02:49.196Z,3.43
2019-03-29T13:05:19.068Z,2.80
2019-03-29T13:07:48.815Z,3.23
2019-03-29T13:10:18.651Z,2.80
2019-03-29T13:12:48.457Z,3.27
2019-03-29T13:15:18.217Z,3.00
2019-03-29T13:17:48.278Z,3.40
2019-03-29T13:20:18.394Z,3.30
2019-03-29T13:22:48.241Z,2.75
2019-03-29T13:25:18.227Z,2.80
2019-03-29T13:27:48.070Z,3.30
2019-03-29T13:30:18.042Z,3.50
2019-03-29T13:32:48.100Z,2.70
2019-03-29T13:35:18.042Z,2.87
2019-03-29T13:37:47.827Z,2.65
2019-03-29T13:40:20.978Z,2.55
2019-03-29T13:42:49.365Z,2.72
2019-03-29T13:45:19.365Z,2.72
2019-03-29T13:47:49.145Z,2.47
2019-03-29T13:50:19.036Z,2.83
2019-03-29T13:52:48.881Z,2.95
2019-03-29T13:55:18.617Z,3.45
2019-03-29T13:57:48.563Z,2.55
2019-03-29T14:00:18.871Z,2.92
2019-03-29T14:02:48.609Z,2.35
2019-03-29T14:05:18.389Z,3.12
2019-03-29T14:07:48.512Z,2.20
2019-03-29T14:10:18.646Z,2.90
2019-03-29T14:12:48.478Z,2.85
2019-03-29T14:15:18.565Z,2.30
2019-03-29T14:17:48.296Z,2.60
2019-03-29T14:20:30.670Z,3.05
2019-03-29T14:23:01.141Z,1.67
2019-03-29T14:25:31.011Z,2.90
2019-03-29T14:28:00.822Z,2.90
2019-03-29T14:30:30.571Z,1.52
2019-03-29T14:33:01.382Z,3.33
2019-03-29T14:35:31.192Z,3.03
2019-03-29T14:38:00.934Z,2.70
2019-03-29T14:40:31.117Z,2.35
2019-03-29T14:43:00.887Z,2.37
2019-03-29T14:45:30.627Z,2.40
2019-03-29T14:48:00.664Z,3.60
2019-03-29T14:50:30.502Z,2.90
2019-03-29T14:53:00.246Z,2.90
2019-03-29T14:55:30.299Z,2.37
2019-03-29T14:58:00.075Z,2.62
2019-03-29T15:00:41.824Z,2.90
2019-03-29T15:03:11.658Z,2.70
2019-03-29T15:05:41.444Z,3.00
2019-03-29T15:08:11.539Z,2.80
2019-03-29T15:10:41.326Z,2.72
2019-03-29T15:13:11.046Z,2.93
2019-03-29T15:15:40.924Z,2.60
2019-03-29T15:18:10.943Z,1.97
2019-03-29T15:20:52.479Z,2.67
2019-03-29T15:23:12.763Z,2.53
2019-03-29T15:25:42.568Z,3.77
2019-03-29T15:28:12.301Z,2.67
2019-03-29T15:30:42.518Z,2.90
2019-03-29T15:33:12.285Z,3.23
2019-03-29T15:35:42.028Z,2.87
2019-03-29T15:38:12.557Z,2.17
2019-03-29T15:40:42.395Z,2.37
2019-03-29T15:43:12.128Z,3.30
2019-03-29T15:45:42.152Z,2.70
2019-03-29T15:48:11.910Z,3.03
2019-03-29T15:50:41.669Z,2.30
2019-03-29T15:53:11.851Z,3.03
2019-03-29T15:55:41.712Z,2.33
2019-03-29T15:58:11.447Z,3.10
2019-03-29T16:00:41.784Z,2.80
2019-03-29T16:03:11.557Z,1.93
2019-03-29T16:05:41.287Z,2.83
2019-03-29T16:08:11.352Z,3.00
2019-03-29T16:10:41.594Z,2.30
2019-03-29T16:13:11.638Z,3.00
2019-03-29T16:15:41.481Z,2.40
2019-03-29T16:18:11.307Z,2.80
2019-03-29T16:20:41.036Z,1.93
2019-03-29T16:23:11.120Z,3.10
2019-03-29T16:25:40.969Z,2.87
2019-03-29T16:28:10.747Z,2.60
2019-03-29T16:30:40.742Z,2.77
2019-03-29T16:33:10.523Z,2.77
2019-03-29T16:35:40.407Z,2.20
2019-03-29T16:38:10.420Z,2.27
2019-03-29T16:40:40.249Z,2.57
2019-03-29T16:43:09.974Z,2.10
2019-03-29T16:45:48.210Z,2.47
2019-03-29T16:48:13.752Z,2.43
2019-03-29T16:50:43.691Z,2.90
2019-03-29T16:53:13.531Z,2.57
2019-03-29T16:55:43.509Z,3.03
2019-03-29T16:58:13.645Z,2.60
2019-03-29T17:00:43.611Z,2.13
2019-03-29T17:03:13.535Z,2.20
2019-03-29T17:05:43.688Z,2.30
2019-03-29T17:08:13.506Z,2.50
2019-03-29T17:10:43.273Z,2.20
2019-03-29T17:13:13.218Z,2.53
2019-03-29T17:15:43.067Z,2.90
2019-03-29T17:18:13.106Z,2.50
2019-03-29T17:20:43.047Z,2.50
2019-03-29T17:23:12.985Z,2.07
2019-03-29T17:25:42.757Z,2.47
2019-03-29T17:28:12.693Z,2.67
2019-03-29T17:30:50.439Z,3.03
2019-03-29T17:33:22.405Z,2.77
2019-03-29T17:35:52.210Z,1.73
2019-03-29T17:38:22.240Z,1.90
2019-03-29T17:40:52.102Z,1.90
2019-03-29T17:43:21.954Z,3.03
2019-03-29T17:45:52.138Z,2.17
2019-03-29T17:48:22.455Z,3.33
2019-03-29T17:50:52.248Z,2.87
2019-03-29T17:53:22.196Z,2.30
2019-03-29T17:55:52.005Z,3.37
2019-03-29T17:58:21.817Z,3.10
2019-03-29T18:00:51.696Z,3.13
2019-03-29T18:03:21.545Z,3.27
2019-03-29T18:05:51.425Z,3.03
2019-03-29T18:08:21.367Z,2.40
2019-03-29T18:10:51.188Z,2.50
2019-03-29T18:13:21.247Z,2.93
2019-03-29T18:15:51.496Z,2.30
2019-03-29T18:18:21.502Z,3.97
2019-03-29T18:20:51.266Z,3.43
2019-03-29T18:23:21.102Z,3.30
2019-03-29T18:25:50.997Z,3.90
2019-03-29T18:28:20.736Z,3.27
2019-03-29T18:30:50.669Z,2.43
2019-03-29T18:33:21.750Z,3.30
2019-03-29T18:35:51.998Z,3.13
2019-03-29T18:38:22.054Z,2.60
2019-03-29T18:40:52.099Z,3.63
2019-03-29T18:43:22.020Z,3.23
2019-03-29T18:45:51.775Z,3.20
2019-03-29T18:48:21.819Z,3.80
2019-03-29T18:50:51.606Z,3.67
2019-03-29T18:53:21.391Z,3.53
2019-03-29T18:55:51.361Z,3.73
2019-03-29T18:58:21.151Z,3.13
2019-03-29T19:00:51.000Z,3.30
2019-03-29T19:03:21.027Z,3.17
2019-03-29T19:05:50.841Z,2.90
2019-03-29T19:08:20.917Z,3.70
2019-03-29T19:10:51.063Z,2.30
2019-03-29T19:13:20.881Z,3.27
2019-03-29T19:15:50.656Z,3.30
2019-03-29T19:18:20.701Z,3.50
2019-03-29T19:20:50.495Z,4.47
2019-03-29T19:23:20.275Z,3.03
2019-03-29T19:25:51.332Z,3.40
2019-03-29T19:28:21.112Z,2.93
2019-03-29T19:30:50.902Z,3.40
2019-03-29T19:33:20.914Z,2.90
2019-03-29T19:35:50.680Z,3.60
2019-03-29T19:38:20.471Z,3.13
2019-03-29T19:40:50.409Z,3.10
2019-03-29T19:43:20.347Z,2.90
2019-03-29T19:45:50.208Z,2.57
2019-03-29T19:48:20.700Z,3.20
2019-03-29T19:50:50.651Z,3.10
2019-03-29T19:53:20.437Z,2.77
2019-03-29T19:55:50.337Z,2.90
2019-03-29T19:58:20.199Z,3.33
2019-03-29T20:00:50.108Z,3.30
2019-03-29T20:03:20.238Z,3.97
2019-03-29T20:05:50.099Z,3.93
2019-03-29T20:08:19.864Z,2.83
2019-03-29T20:10:49.932Z,3.47
2019-03-29T20:13:19.757Z,2.50
2019-03-29T20:15:49.530Z,2.40
2019-03-29T20:18:19.675Z,3.33
2019-03-29T20:20:49.454Z,3.50
2019-03-29T20:23:19.230Z,4.00
2019-03-29T20:25:49.730Z,3.70
2019-03-29T20:28:19.641Z,3.43
2019-03-29T20:30:50.167Z,2.73
2019-03-29T20:33:19.941Z,2.33
2019-03-29T20:35:49.760Z,2.70
2019-03-29T20:38:21.881Z,3.00
2019-03-29T20:40:51.755Z,3.27
2019-03-29T20:43:21.534Z,3.00
2019-03-29T20:45:51.435Z,2.57
2019-03-29T20:48:21.276Z,2.27
2019-03-29T20:50:51.090Z,2.60
2019-03-29T20:53:21.006Z,2.50
2019-03-29T20:55:50.850Z,2.77
2019-03-29T20:58:20.626Z,2.40
2019-03-29T21:00:50.493Z,2.83
2019-03-29T21:03:20.379Z,3.17
2019-03-29T21:05:50.167Z,2.07
2019-03-29T21:08:20.085Z,2.43
2019-03-29T21:10:56.281Z,2.57
2019-03-29T21:13:23.796Z,2.77
2019-03-29T21:15:53.574Z,2.90
2019-03-29T21:18:23.471Z,2.90
2019-03-29T21:20:53.350Z,3.23
2019-03-29T21:23:23.087Z,3.23
2019-03-29T21:25:52.969Z,2.50
2019-03-29T21:28:22.841Z,2.87
2019-03-29T21:30:52.702Z,4.00
2019-03-29T21:33:22.491Z,3.00
2019-03-29T21:35:52.830Z,3.07
2019-03-29T21:38:22.571Z,2.40
2019-03-29T21:40:52.375Z,3.90
2019-03-29T21:43:22.304Z,3.13
2019-03-29T21:45:52.034Z,2.67
2019-03-29T21:48:29.414Z,2.40
2019-03-29T21:50:53.464Z,3.07
2019-03-29T21:53:23.193Z,2.83
2019-03-29T21:55:53.036Z,2.37
2019-03-29T21:58:23.388Z,3.03
2019-03-29T22:00:53.110Z,3.10
2019-03-29T22:03:22.875Z,3.00
2019-03-29T22:05:52.847Z,3.57
2019-03-29T22:08:22.694Z,2.73
2019-03-29T22:10:52.915Z,3.07
2019-03-29T22:13:22.814Z,2.83
2019-03-29T22:15:52.541Z,2.43
2019-03-29T22:18:22.303Z,3.07
2019-03-29T22:20:52.318Z,2.57
2019-03-29T22:23:22.072Z,2.83
2019-03-29T22:25:52.146Z,3.03
2019-03-29T22:28:22.053Z,3.57
2019-03-29T22:30:51.790Z,2.83
2019-03-29T22:33:21.702Z,2.50
2019-03-29T22:35:51.988Z,3.10
2019-03-29T22:38:21.734Z,2.63
2019-03-29T22:40:51.491Z,3.30
2019-03-29T22:43:21.438Z,3.20
2019-03-29T22:45:51.170Z,2.63
2019-03-29T22:48:20.943Z,3.40
2019-03-29T22:50:51.493Z,3.83
2019-03-29T22:53:21.246Z,3.60
2019-03-29T22:55:51.016Z,3.13
2019-03-29T22:58:20.902Z,3.23
2019-03-29T23:00:54.027Z,3.10
2019-03-29T23:03:24.449Z,3.27
2019-03-29T23:05:54.335Z,3.50
2019-03-29T23:08:24.043Z,3.17
2019-03-29T23:10:53.967Z,3.30
2019-03-29T23:13:23.910Z,2.97
2019-03-29T23:15:53.660Z,3.63
2019-03-29T23:18:23.619Z,3.80
2019-03-29T23:20:53.585Z,4.00
2019-03-29T23:23:23.309Z,4.17
2019-03-29T23:25:53.164Z,3.27
2019-03-29T23:28:22.898Z,3.03
2019-03-29T23:30:52.648Z,3.77
2019-03-29T23:33:22.579Z,3.90
2019-03-29T23:35:52.423Z,3.60
2019-03-29T23:38:22.151Z,4.03
2019-03-29T23:40:52.230Z,4.03
2019-03-29T23:43:21.951Z,4.07
2019-03-29T23:45:51.720Z,4.27
2019-03-29T23:48:21.688Z,3.23
2019-03-29T23:50:51.435Z,4.63
2019-03-29T23:53:21.223Z,4.27
2019-03-29T23:55:51.308Z,4.10
2019-03-29T23:58:21.030Z,4.23
